sensor_id;sensor_type;location;lat;lon;timestamp;P1;durP1;ratioP1;P2;durP2;ratioP2
25341;SDS011;13298;48.792;9.154;2023-07-22T00:02:22;3.58;;;1.77;;
25341;SDS011;13298;48.792;9.154;2023-07-22T00:04:48;4.00;;;2.15;;
25341;SDS011;13298;48.792;9.154;2023-07-22T00:07:14;4.15;;;2.00;;
25341;SDS011;13298;48.792;9.154;2023-07-22T00:09:41;4.10;;;2.08;;
25341;SDS011;13298;48.792;9.154;2023-07-22T00:12:08;5.15;;;2.35;;
25341;SDS011;13298;48.792;9.154;2023-07-22T00:14:37;3.00;;;2.10;;
25341;SDS011;13298;48.792;9.154;2023-07-22T00:17:05;2.75;;;1.83;;
25341;SDS011;13298;48.792;9.154;2023-07-22T00:19:31;2.70;;;1.67;;
25341;SDS011;13298;48.792;9.154;2023-07-22T00:21:56;2.10;;;1.50;;
25341;SDS011;13298;48.792;9.154;2023-07-22T00:24:22;4.07;;;1.83;;
25341;SDS011;13298;48.792;9.154;2023-07-22T00:26:48;2.90;;;2.03;;
25341;SDS011;13298;48.792;9.154;2023-07-22T00:29:17;2.65;;;1.70;;
25341;SDS011;13298;48.792;9.154;2023-07-22T00:31:43;2.53;;;1.90;;
25341;SDS011;13298;48.792;9.154;2023-07-22T00:34:08;3.17;;;1.88;;
25341;SDS011;13298;48.792;9.154;2023-07-22T00:36:35;2.70;;;1.63;;
25341;SDS011;13298;48.792;9.154;2023-07-22T00:39:02;2.63;;;1.75;;
25341;SDS011;13298;48.792;9.154;2023-07-22T00:41:28;2.20;;;1.65;;
25341;SDS011;13298;48.792;9.154;2023-07-22T00:43:54;4.70;;;1.80;;
25341;SDS011;13298;48.792;9.154;2023-07-22T00:46:20;3.42;;;2.00;;
25341;SDS011;13298;48.792;9.154;2023-07-22T00:48:46;2.78;;;2.00;;
25341;SDS011;13298;48.792;9.154;2023-07-22T00:51:13;3.72;;;1.90;;
25341;SDS011;13298;48.792;9.154;2023-07-22T00:53:39;2.72;;;1.88;;
25341;SDS011;13298;48.792;9.154;2023-07-22T00:56:05;2.72;;;1.80;;
25341;SDS011;13298;48.792;9.154;2023-07-22T00:58:31;2.85;;;1.92;;
25341;SDS011;13298;48.792;9.154;2023-07-22T01:00:58;2.40;;;1.90;;
25341;SDS011;13298;48.792;9.154;2023-07-22T01:03:24;2.80;;;1.92;;
25341;SDS011;13298;48.792;9.154;2023-07-22T01:05:50;3.20;;;2.10;;
25341;SDS011;13298;48.792;9.154;2023-07-22T01:08:17;3.03;;;1.92;;
25341;SDS011;13298;48.792;9.154;2023-07-22T01:10:43;2.13;;;1.90;;
25341;SDS011;13298;48.792;9.154;2023-07-22T01:13:08;2.75;;;1.90;;
25341;SDS011;13298;48.792;9.154;2023-07-22T01:15:34;3.80;;;2.17;;
25341;SDS011;13298;48.792;9.154;2023-07-22T01:18:02;3.17;;;1.88;;
25341;SDS011;13298;48.792;9.154;2023-07-22T01:20:29;3.65;;;2.38;;
25341;SDS011;13298;48.792;9.154;2023-07-22T01:22:55;4.32;;;2.30;;
25341;SDS011;13298;48.792;9.154;2023-07-22T01:25:22;3.08;;;2.20;;
25341;SDS011;13298;48.792;9.154;2023-07-22T01:27:48;3.63;;;2.55;;
25341;SDS011;13298;48.792;9.154;2023-07-22T01:30:15;3.63;;;2.30;;
25341;SDS011;13298;48.792;9.154;2023-07-22T01:32:41;3.00;;;1.98;;
25341;SDS011;13298;48.792;9.154;2023-07-22T01:35:07;3.25;;;2.00;;
25341;SDS011;13298;48.792;9.154;2023-07-22T01:37:34;3.45;;;2.10;;
25341;SDS011;13298;48.792;9.154;2023-07-22T01:40:00;3.97;;;2.38;;
25341;SDS011;13298;48.792;9.154;2023-07-22T01:42:30;2.35;;;2.00;;
25341;SDS011;13298;48.792;9.154;2023-07-22T01:44:56;2.60;;;2.00;;
25341;SDS011;13298;48.792;9.154;2023-07-22T01:47:22;1.90;;;1.65;;
25341;SDS011;13298;48.792;9.154;2023-07-22T01:49:48;2.88;;;2.17;;
25341;SDS011;13298;48.792;9.154;2023-07-22T01:52:13;2.35;;;2.00;;
25341;SDS011;13298;48.792;9.154;2023-07-22T01:54:39;3.33;;;2.38;;
25341;SDS011;13298;48.792;9.154;2023-07-22T01:57:05;5.18;;;2.30;;
25341;SDS011;13298;48.792;9.154;2023-07-22T01:59:30;2.88;;;2.00;;
25341;SDS011;13298;48.792;9.154;2023-07-22T02:01:56;2.60;;;1.90;;
25341;SDS011;13298;48.792;9.154;2023-07-22T02:04:22;4.50;;;2.22;;
25341;SDS011;13298;48.792;9.154;2023-07-22T02:06:47;3.00;;;1.98;;
25341;SDS011;13298;48.792;9.154;2023-07-22T02:09:13;3.15;;;2.13;;
25341;SDS011;13298;48.792;9.154;2023-07-22T02:11:39;3.30;;;2.10;;
25341;SDS011;13298;48.792;9.154;2023-07-22T02:14:05;2.67;;;1.77;;
25341;SDS011;13298;48.792;9.154;2023-07-22T02:16:34;6.75;;;2.20;;
25341;SDS011;13298;48.792;9.154;2023-07-22T02:19:01;2.30;;;1.88;;
25341;SDS011;13298;48.792;9.154;2023-07-22T02:21:28;3.10;;;2.15;;
25341;SDS011;13298;48.792;9.154;2023-07-22T02:23:54;3.78;;;2.13;;
25341;SDS011;13298;48.792;9.154;2023-07-22T02:26:19;3.00;;;2.00;;
25341;SDS011;13298;48.792;9.154;2023-07-22T02:28:45;3.22;;;1.77;;
25341;SDS011;13298;48.792;9.154;2023-07-22T02:31:11;3.45;;;2.10;;
25341;SDS011;13298;48.792;9.154;2023-07-22T02:33:37;2.38;;;1.80;;
25341;SDS011;13298;48.792;9.154;2023-07-22T02:36:03;2.75;;;2.00;;
25341;SDS011;13298;48.792;9.154;2023-07-22T02:38:28;4.00;;;2.15;;
25341;SDS011;13298;48.792;9.154;2023-07-22T02:40:54;2.83;;;2.08;;
25341;SDS011;13298;48.792;9.154;2023-07-22T02:43:20;2.75;;;1.90;;
25341;SDS011;13298;48.792;9.154;2023-07-22T02:45:46;2.78;;;1.90;;
25341;SDS011;13298;48.792;9.154;2023-07-22T02:48:12;3.05;;;2.03;;
25341;SDS011;13298;48.792;9.154;2023-07-22T02:50:39;3.10;;;2.20;;
25341;SDS011;13298;48.792;9.154;2023-07-22T02:53:05;2.67;;;1.95;;
25341;SDS011;13298;48.792;9.154;2023-07-22T02:55:31;2.78;;;2.28;;
25341;SDS011;13298;48.792;9.154;2023-07-22T02:57:57;2.80;;;2.15;;
25341;SDS011;13298;48.792;9.154;2023-07-22T03:00:22;3.85;;;2.20;;
25341;SDS011;13298;48.792;9.154;2023-07-22T03:02:55;2.45;;;1.75;;
25341;SDS011;13298;48.792;9.154;2023-07-22T03:05:28;3.15;;;1.77;;
25341;SDS011;13298;48.792;9.154;2023-07-22T03:07:54;2.75;;;2.05;;
25341;SDS011;13298;48.792;9.154;2023-07-22T03:10:20;2.10;;;1.90;;
25341;SDS011;13298;48.792;9.154;2023-07-22T03:12:46;3.40;;;2.00;;
25341;SDS011;13298;48.792;9.154;2023-07-22T03:15:13;4.55;;;1.90;;
25341;SDS011;13298;48.792;9.154;2023-07-22T03:17:39;2.60;;;2.00;;
25341;SDS011;13298;48.792;9.154;2023-07-22T03:20:08;2.90;;;2.10;;
25341;SDS011;13298;48.792;9.154;2023-07-22T03:22:44;3.53;;;2.10;;
25341;SDS011;13298;48.792;9.154;2023-07-22T03:25:11;3.17;;;2.13;;
25341;SDS011;13298;48.792;9.154;2023-07-22T03:27:39;3.28;;;2.00;;
25341;SDS011;13298;48.792;9.154;2023-07-22T03:30:05;3.20;;;1.90;;
25341;SDS011;13298;48.792;9.154;2023-07-22T03:32:33;3.40;;;2.40;;
25341;SDS011;13298;48.792;9.154;2023-07-22T03:34:59;3.63;;;2.10;;
25341;SDS011;13298;48.792;9.154;2023-07-22T03:37:26;3.53;;;1.88;;
25341;SDS011;13298;48.792;9.154;2023-07-22T03:39:52;2.05;;;1.85;;
25341;SDS011;13298;48.792;9.154;2023-07-22T03:42:18;2.72;;;2.08;;
25341;SDS011;13298;48.792;9.154;2023-07-22T03:44:44;3.10;;;2.00;;
25341;SDS011;13298;48.792;9.154;2023-07-22T03:47:10;3.28;;;2.20;;
25341;SDS011;13298;48.792;9.154;2023-07-22T03:49:35;2.33;;;1.90;;
25341;SDS011;13298;48.792;9.154;2023-07-22T03:52:01;2.97;;;1.92;;
25341;SDS011;13298;48.792;9.154;2023-07-22T03:54:27;3.45;;;1.95;;
25341;SDS011;13298;48.792;9.154;2023-07-22T03:56:52;4.38;;;2.20;;
25341;SDS011;13298;48.792;9.154;2023-07-22T03:59:18;3.72;;;1.88;;
25341;SDS011;13298;48.792;9.154;2023-07-22T04:01:44;4.20;;;2.22;;
25341;SDS011;13298;48.792;9.154;2023-07-22T04:04:11;3.15;;;2.10;;
25341;SDS011;13298;48.792;9.154;2023-07-22T04:06:36;2.35;;;2.00;;
25341;SDS011;13298;48.792;9.154;2023-07-22T04:09:02;2.38;;;1.75;;
25341;SDS011;13298;48.792;9.154;2023-07-22T04:11:28;3.30;;;2.17;;
25341;SDS011;13298;48.792;9.154;2023-07-22T04:13:53;3.03;;;1.70;;
25341;SDS011;13298;48.792;9.154;2023-07-22T04:16:19;3.92;;;2.08;;
25341;SDS011;13298;48.792;9.154;2023-07-22T04:18:45;3.58;;;2.00;;
25341;SDS011;13298;48.792;9.154;2023-07-22T04:21:10;3.40;;;2.15;;
25341;SDS011;13298;48.792;9.154;2023-07-22T04:23:36;4.40;;;2.40;;
25341;SDS011;13298;48.792;9.154;2023-07-22T04:26:02;2.67;;;1.95;;
25341;SDS011;13298;48.792;9.154;2023-07-22T04:28:32;2.55;;;1.90;;
25341;SDS011;13298;48.792;9.154;2023-07-22T04:31:00;2.80;;;2.03;;
25341;SDS011;13298;48.792;9.154;2023-07-22T04:33:26;2.30;;;1.90;;
25341;SDS011;13298;48.792;9.154;2023-07-22T04:35:53;4.13;;;2.00;;
25341;SDS011;13298;48.792;9.154;2023-07-22T04:38:22;2.38;;;1.88;;
25341;SDS011;13298;48.792;9.154;2023-07-22T04:40:47;2.95;;;1.95;;
25341;SDS011;13298;48.792;9.154;2023-07-22T04:43:13;2.75;;;1.73;;
25341;SDS011;13298;48.792;9.154;2023-07-22T04:45:39;3.53;;;2.20;;
25341;SDS011;13298;48.792;9.154;2023-07-22T04:48:05;5.28;;;2.33;;
25341;SDS011;13298;48.792;9.154;2023-07-22T04:50:31;3.10;;;2.20;;
25341;SDS011;13298;48.792;9.154;2023-07-22T04:52:57;2.80;;;1.83;;
25341;SDS011;13298;48.792;9.154;2023-07-22T04:55:24;3.05;;;2.25;;
25341;SDS011;13298;48.792;9.154;2023-07-22T04:57:51;4.90;;;2.17;;
25341;SDS011;13298;48.792;9.154;2023-07-22T05:00:16;2.38;;;1.60;;
25341;SDS011;13298;48.792;9.154;2023-07-22T05:02:44;3.60;;;2.35;;
25341;SDS011;13298;48.792;9.154;2023-07-22T05:05:12;2.50;;;1.83;;
25341;SDS011;13298;48.792;9.154;2023-07-22T05:07:38;3.03;;;1.95;;
25341;SDS011;13298;48.792;9.154;2023-07-22T05:10:03;3.47;;;2.08;;
25341;SDS011;13298;48.792;9.154;2023-07-22T05:12:32;2.45;;;1.92;;
25341;SDS011;13298;48.792;9.154;2023-07-22T05:14:57;2.35;;;1.63;;
25341;SDS011;13298;48.792;9.154;2023-07-22T05:17:23;2.67;;;2.03;;
25341;SDS011;13298;48.792;9.154;2023-07-22T05:19:50;2.83;;;1.80;;
25341;SDS011;13298;48.792;9.154;2023-07-22T05:22:16;2.42;;;1.70;;
25341;SDS011;13298;48.792;9.154;2023-07-22T05:24:42;3.00;;;2.00;;
25341;SDS011;13298;48.792;9.154;2023-07-22T05:27:07;3.50;;;1.92;;
25341;SDS011;13298;48.792;9.154;2023-07-22T05:29:33;4.22;;;1.98;;
25341;SDS011;13298;48.792;9.154;2023-07-22T05:31:59;2.40;;;1.80;;
25341;SDS011;13298;48.792;9.154;2023-07-22T05:34:24;2.42;;;1.88;;
25341;SDS011;13298;48.792;9.154;2023-07-22T05:36:50;2.72;;;1.80;;
25341;SDS011;13298;48.792;9.154;2023-07-22T05:39:16;2.58;;;1.65;;
25341;SDS011;13298;48.792;9.154;2023-07-22T05:41:43;3.20;;;1.90;;
25341;SDS011;13298;48.792;9.154;2023-07-22T05:44:09;3.17;;;1.75;;
25341;SDS011;13298;48.792;9.154;2023-07-22T05:46:35;4.05;;;2.00;;
25341;SDS011;13298;48.792;9.154;2023-07-22T05:49:00;4.28;;;1.83;;
25341;SDS011;13298;48.792;9.154;2023-07-22T05:51:26;2.30;;;1.67;;
25341;SDS011;13298;48.792;9.154;2023-07-22T05:53:52;4.55;;;1.80;;
25341;SDS011;13298;48.792;9.154;2023-07-22T05:56:17;3.15;;;1.80;;
25341;SDS011;13298;48.792;9.154;2023-07-22T05:58:43;2.35;;;1.60;;
25341;SDS011;13298;48.792;9.154;2023-07-22T06:01:09;2.80;;;1.75;;
25341;SDS011;13298;48.792;9.154;2023-07-22T06:03:36;3.53;;;2.10;;
25341;SDS011;13298;48.792;9.154;2023-07-22T06:06:03;2.70;;;1.80;;
25341;SDS011;13298;48.792;9.154;2023-07-22T06:08:29;3.97;;;2.25;;
25341;SDS011;13298;48.792;9.154;2023-07-22T06:10:55;4.63;;;1.95;;
25341;SDS011;13298;48.792;9.154;2023-07-22T06:13:21;3.25;;;1.60;;
25341;SDS011;13298;48.792;9.154;2023-07-22T06:15:47;3.67;;;1.80;;
25341;SDS011;13298;48.792;9.154;2023-07-22T06:18:13;2.33;;;1.67;;
25341;SDS011;13298;48.792;9.154;2023-07-22T06:20:38;4.63;;;2.35;;
25341;SDS011;13298;48.792;9.154;2023-07-22T06:23:04;2.67;;;1.80;;
25341;SDS011;13298;48.792;9.154;2023-07-22T06:25:30;2.78;;;2.00;;
25341;SDS011;13298;48.792;9.154;2023-07-22T06:27:56;3.15;;;2.25;;
25341;SDS011;13298;48.792;9.154;2023-07-22T06:30:22;3.13;;;1.90;;
25341;SDS011;13298;48.792;9.154;2023-07-22T06:32:47;1.75;;;1.40;;
25341;SDS011;13298;48.792;9.154;2023-07-22T06:35:13;2.80;;;1.92;;
25341;SDS011;13298;48.792;9.154;2023-07-22T06:37:39;2.22;;;1.90;;
25341;SDS011;13298;48.792;9.154;2023-07-22T06:40:05;3.78;;;1.80;;
25341;SDS011;13298;48.792;9.154;2023-07-22T06:42:31;2.25;;;1.75;;
25341;SDS011;13298;48.792;9.154;2023-07-22T06:44:57;3.45;;;2.08;;
25341;SDS011;13298;48.792;9.154;2023-07-22T06:47:23;2.38;;;1.55;;
25341;SDS011;13298;48.792;9.154;2023-07-22T06:49:49;2.60;;;1.73;;
25341;SDS011;13298;48.792;9.154;2023-07-22T06:52:15;2.05;;;1.50;;
25341;SDS011;13298;48.792;9.154;2023-07-22T06:54:41;3.50;;;2.08;;
25341;SDS011;13298;48.792;9.154;2023-07-22T06:57:07;4.50;;;1.95;;
25341;SDS011;13298;48.792;9.154;2023-07-22T06:59:33;2.85;;;1.92;;
25341;SDS011;13298;48.792;9.154;2023-07-22T07:01:59;3.10;;;2.00;;
25341;SDS011;13298;48.792;9.154;2023-07-22T07:04:25;3.33;;;1.85;;
25341;SDS011;13298;48.792;9.154;2023-07-22T07:06:51;2.55;;;1.90;;
25341;SDS011;13298;48.792;9.154;2023-07-22T07:09:17;3.17;;;1.80;;
25341;SDS011;13298;48.792;9.154;2023-07-22T07:11:42;2.67;;;1.70;;
25341;SDS011;13298;48.792;9.154;2023-07-22T07:14:08;2.10;;;1.67;;
25341;SDS011;13298;48.792;9.154;2023-07-22T07:16:34;3.45;;;1.73;;
25341;SDS011;13298;48.792;9.154;2023-07-22T07:19:00;2.65;;;1.70;;
25341;SDS011;13298;48.792;9.154;2023-07-22T07:21:27;4.00;;;2.20;;
25341;SDS011;13298;48.792;9.154;2023-07-22T07:23:53;3.10;;;2.00;;
25341;SDS011;13298;48.792;9.154;2023-07-22T07:26:19;2.80;;;1.90;;
25341;SDS011;13298;48.792;9.154;2023-07-22T07:28:46;4.05;;;1.85;;
25341;SDS011;13298;48.792;9.154;2023-07-22T07:31:12;3.20;;;1.90;;
25341;SDS011;13298;48.792;9.154;2023-07-22T07:33:38;2.80;;;2.20;;
25341;SDS011;13298;48.792;9.154;2023-07-22T07:36:04;3.65;;;1.80;;
25341;SDS011;13298;48.792;9.154;2023-07-22T07:38:30;1.88;;;1.50;;
25341;SDS011;13298;48.792;9.154;2023-07-22T07:40:57;2.92;;;1.80;;
25341;SDS011;13298;48.792;9.154;2023-07-22T07:43:36;1.80;;;1.50;;
25341;SDS011;13298;48.792;9.154;2023-07-22T07:46:13;2.15;;;1.73;;
25341;SDS011;13298;48.792;9.154;2023-07-22T07:48:47;3.08;;;1.63;;
25341;SDS011;13298;48.792;9.154;2023-07-22T07:51:19;4.28;;;1.90;;
25341;SDS011;13298;48.792;9.154;2023-07-22T07:53:47;5.07;;;1.50;;
25341;SDS011;13298;48.792;9.154;2023-07-22T07:56:13;2.55;;;1.50;;
25341;SDS011;13298;48.792;9.154;2023-07-22T07:58:40;2.10;;;1.55;;
25341;SDS011;13298;48.792;9.154;2023-07-22T08:01:06;2.58;;;1.65;;
25341;SDS011;13298;48.792;9.154;2023-07-22T08:03:32;2.22;;;1.75;;
25341;SDS011;13298;48.792;9.154;2023-07-22T08:06:00;4.32;;;1.85;;
25341;SDS011;13298;48.792;9.154;2023-07-22T08:08:26;2.97;;;1.63;;
25341;SDS011;13298;48.792;9.154;2023-07-22T08:10:59;2.10;;;1.40;;
25341;SDS011;13298;48.792;9.154;2023-07-22T08:13:38;3.78;;;1.48;;
25341;SDS011;13298;48.792;9.154;2023-07-22T08:16:05;3.30;;;1.50;;
25341;SDS011;13298;48.792;9.154;2023-07-22T08:18:33;3.58;;;1.80;;
25341;SDS011;13298;48.792;9.154;2023-07-22T08:21:00;2.08;;;1.63;;
25341;SDS011;13298;48.792;9.154;2023-07-22T08:23:28;1.95;;;1.50;;
25341;SDS011;13298;48.792;9.154;2023-07-22T08:25:54;2.53;;;1.50;;
25341;SDS011;13298;48.792;9.154;2023-07-22T08:28:20;1.90;;;1.40;;
25341;SDS011;13298;48.792;9.154;2023-07-22T08:30:47;2.45;;;1.50;;
25341;SDS011;13298;48.792;9.154;2023-07-22T08:33:13;2.15;;;1.50;;
25341;SDS011;13298;48.792;9.154;2023-07-22T08:35:39;2.95;;;1.50;;
25341;SDS011;13298;48.792;9.154;2023-07-22T08:38:06;3.30;;;1.33;;
25341;SDS011;13298;48.792;9.154;2023-07-22T08:40:37;1.40;;;1.30;;
25341;SDS011;13298;48.792;9.154;2023-07-22T08:43:05;2.50;;;1.30;;
25341;SDS011;13298;48.792;9.154;2023-07-22T08:45:34;1.48;;;1.15;;
25341;SDS011;13298;48.792;9.154;2023-07-22T08:48:08;5.93;;;1.67;;
25341;SDS011;13298;48.792;9.154;2023-07-22T08:51:35;1.55;;;1.30;;
25341;SDS011;13298;48.792;9.154;2023-07-22T08:53:38;2.20;;;1.50;;
25341;SDS011;13298;48.792;9.154;2023-07-22T08:56:04;5.05;;;1.77;;
25341;SDS011;13298;48.792;9.154;2023-07-22T08:58:30;3.65;;;1.30;;
25341;SDS011;13298;48.792;9.154;2023-07-22T09:00:56;2.35;;;1.48;;
25341;SDS011;13298;48.792;9.154;2023-07-22T09:03:23;2.72;;;1.50;;
25341;SDS011;13298;48.792;9.154;2023-07-22T09:05:49;2.25;;;1.42;;
25341;SDS011;13298;48.792;9.154;2023-07-22T09:08:15;1.88;;;1.30;;
25341;SDS011;13298;48.792;9.154;2023-07-22T09:10:42;2.00;;;1.30;;
25341;SDS011;13298;48.792;9.154;2023-07-22T09:13:08;1.60;;;1.15;;
25341;SDS011;13298;48.792;9.154;2023-07-22T09:15:35;2.13;;;1.65;;
25341;SDS011;13298;48.792;9.154;2023-07-22T09:18:01;1.70;;;1.35;;
25341;SDS011;13298;48.792;9.154;2023-07-22T09:20:28;2.58;;;1.50;;
25341;SDS011;13298;48.792;9.154;2023-07-22T09:22:54;2.05;;;1.42;;
25341;SDS011;13298;48.792;9.154;2023-07-22T09:25:21;2.72;;;1.50;;
25341;SDS011;13298;48.792;9.154;2023-07-22T09:27:50;3.25;;;1.55;;
25341;SDS011;13298;48.792;9.154;2023-07-22T09:32:54;2.15;;;1.30;;
25341;SDS011;13298;48.792;9.154;2023-07-22T09:35:22;2.10;;;1.63;;
25341;SDS011;13298;48.792;9.154;2023-07-22T09:37:52;4.43;;;1.60;;
25341;SDS011;13298;48.792;9.154;2023-07-22T09:40:25;2.55;;;1.40;;
25341;SDS011;13298;48.792;9.154;2023-07-22T09:42:53;3.38;;;1.60;;
25341;SDS011;13298;48.792;9.154;2023-07-22T09:45:25;2.00;;;1.20;;
25341;SDS011;13298;48.792;9.154;2023-07-22T09:47:54;2.88;;;1.50;;
25341;SDS011;13298;48.792;9.154;2023-07-22T09:50:21;1.50;;;1.20;;
25341;SDS011;13298;48.792;9.154;2023-07-22T09:52:49;3.80;;;1.58;;
25341;SDS011;13298;48.792;9.154;2023-07-22T09:55:21;1.20;;;1.10;;
25341;SDS011;13298;48.792;9.154;2023-07-22T09:57:50;2.40;;;1.30;;
25341;SDS011;13298;48.792;9.154;2023-07-22T10:00:35;2.00;;;1.40;;
25341;SDS011;13298;48.792;9.154;2023-07-22T10:03:02;3.10;;;1.20;;
25341;SDS011;13298;48.792;9.154;2023-07-22T10:05:30;1.65;;;1.35;;
25341;SDS011;13298;48.792;9.154;2023-07-22T10:07:59;2.25;;;1.23;;
25341;SDS011;13298;48.792;9.154;2023-07-22T10:10:34;2.95;;;1.30;;
25341;SDS011;13298;48.792;9.154;2023-07-22T10:13:04;1.63;;;1.33;;
25341;SDS011;13298;48.792;9.154;2023-07-22T10:15:31;1.40;;;1.27;;
25341;SDS011;13298;48.792;9.154;2023-07-22T10:17:59;1.52;;;1.08;;
25341;SDS011;13298;48.792;9.154;2023-07-22T10:20:27;2.55;;;1.40;;
25341;SDS011;13298;48.792;9.154;2023-07-22T10:22:55;2.40;;;1.40;;
25341;SDS011;13298;48.792;9.154;2023-07-22T10:25:21;2.05;;;1.23;;
25341;SDS011;13298;48.792;9.154;2023-07-22T10:27:48;2.45;;;1.65;;
25341;SDS011;13298;48.792;9.154;2023-07-22T10:30:16;5.05;;;1.38;;
25341;SDS011;13298;48.792;9.154;2023-07-22T10:32:44;1.50;;;1.17;;
25341;SDS011;13298;48.792;9.154;2023-07-22T10:35:25;1.52;;;1.15;;
25341;SDS011;13298;48.792;9.154;2023-07-22T10:38:10;1.80;;;1.20;;
25341;SDS011;13298;48.792;9.154;2023-07-22T10:40:50;2.40;;;1.30;;
25341;SDS011;13298;48.792;9.154;2023-07-22T10:43:19;2.92;;;1.48;;
25341;SDS011;13298;48.792;9.154;2023-07-22T10:45:56;4.45;;;1.65;;
25341;SDS011;13298;48.792;9.154;2023-07-22T10:48:35;4.68;;;1.30;;
25341;SDS011;13298;48.792;9.154;2023-07-22T10:51:06;3.25;;;1.40;;
25341;SDS011;13298;48.792;9.154;2023-07-22T10:53:42;2.15;;;1.40;;
25341;SDS011;13298;48.792;9.154;2023-07-22T10:56:19;1.50;;;1.33;;
25341;SDS011;13298;48.792;9.154;2023-07-22T11:06:59;1.42;;;1.30;;
25341;SDS011;13298;48.792;9.154;2023-07-22T11:11:58;2.08;;;1.30;;
25341;SDS011;13298;48.792;9.154;2023-07-22T11:14:45;2.05;;;1.20;;
25341;SDS011;13298;48.792;9.154;2023-07-22T11:17:14;1.35;;;1.25;;
25341;SDS011;13298;48.792;9.154;2023-07-22T11:19:40;2.17;;;1.20;;
25341;SDS011;13298;48.792;9.154;2023-07-22T11:22:06;1.58;;;1.45;;
25341;SDS011;13298;48.792;9.154;2023-07-22T11:24:33;5.03;;;2.50;;
25341;SDS011;13298;48.792;9.154;2023-07-22T11:27:01;2.10;;;1.38;;
25341;SDS011;13298;48.792;9.154;2023-07-22T11:29:32;6.55;;;1.63;;
25341;SDS011;13298;48.792;9.154;2023-07-22T11:31:58;3.60;;;1.77;;
25341;SDS011;13298;48.792;9.154;2023-07-22T11:34:24;1.88;;;1.33;;
25341;SDS011;13298;48.792;9.154;2023-07-22T11:36:51;2.53;;;1.75;;
25341;SDS011;13298;48.792;9.154;2023-07-22T11:39:19;1.80;;;1.40;;
25341;SDS011;13298;48.792;9.154;2023-07-22T11:41:48;2.17;;;1.75;;
25341;SDS011;13298;48.792;9.154;2023-07-22T11:44:16;3.70;;;1.50;;
25341;SDS011;13298;48.792;9.154;2023-07-22T11:49:34;1.77;;;1.38;;
25341;SDS011;13298;48.792;9.154;2023-07-22T11:52:05;2.50;;;1.65;;
25341;SDS011;13298;48.792;9.154;2023-07-22T11:54:36;2.35;;;1.90;;
25341;SDS011;13298;48.792;9.154;2023-07-22T12:02:17;6.15;;;1.92;;
25341;SDS011;13298;48.792;9.154;2023-07-22T12:04:55;2.38;;;1.48;;
25341;SDS011;13298;48.792;9.154;2023-07-22T12:07:26;1.83;;;1.48;;
25341;SDS011;13298;48.792;9.154;2023-07-22T12:10:04;2.85;;;1.65;;
25341;SDS011;13298;48.792;9.154;2023-07-22T12:12:32;2.45;;;1.75;;
25341;SDS011;13298;48.792;9.154;2023-07-22T12:15:10;2.22;;;1.40;;
25341;SDS011;13298;48.792;9.154;2023-07-22T12:17:52;1.92;;;1.60;;
25341;SDS011;13298;48.792;9.154;2023-07-22T12:20:24;2.33;;;1.50;;
25341;SDS011;13298;48.792;9.154;2023-07-22T12:22:51;3.38;;;1.77;;
25341;SDS011;13298;48.792;9.154;2023-07-22T12:25:17;2.30;;;1.70;;
25341;SDS011;13298;48.792;9.154;2023-07-22T12:27:43;2.58;;;1.60;;
25341;SDS011;13298;48.792;9.154;2023-07-22T12:30:10;1.92;;;1.50;;
25341;SDS011;13298;48.792;9.154;2023-07-22T12:32:36;2.53;;;1.80;;
25341;SDS011;13298;48.792;9.154;2023-07-22T12:35:02;3.75;;;1.75;;
25341;SDS011;13298;48.792;9.154;2023-07-22T12:37:28;2.65;;;1.60;;
25341;SDS011;13298;48.792;9.154;2023-07-22T12:39:54;4.00;;;2.22;;
25341;SDS011;13298;48.792;9.154;2023-07-22T12:42:21;1.92;;;1.50;;
25341;SDS011;13298;48.792;9.154;2023-07-22T12:44:46;2.78;;;1.50;;
25341;SDS011;13298;48.792;9.154;2023-07-22T12:47:12;2.92;;;1.67;;
25341;SDS011;13298;48.792;9.154;2023-07-22T12:49:38;4.57;;;1.73;;
25341;SDS011;13298;48.792;9.154;2023-07-22T12:52:04;3.65;;;2.03;;
25341;SDS011;13298;48.792;9.154;2023-07-22T12:54:33;2.88;;;1.77;;
25341;SDS011;13298;48.792;9.154;2023-07-22T12:57:03;2.08;;;1.60;;
25341;SDS011;13298;48.792;9.154;2023-07-22T12:59:29;2.58;;;1.80;;
25341;SDS011;13298;48.792;9.154;2023-07-22T13:01:55;2.70;;;1.67;;
25341;SDS011;13298;48.792;9.154;2023-07-22T13:04:22;2.13;;;1.85;;
25341;SDS011;13298;48.792;9.154;2023-07-22T13:06:49;2.55;;;1.70;;
25341;SDS011;13298;48.792;9.154;2023-07-22T13:09:16;2.58;;;1.60;;
25341;SDS011;13298;48.792;9.154;2023-07-22T13:11:43;2.85;;;1.90;;
25341;SDS011;13298;48.792;9.154;2023-07-22T13:14:09;3.33;;;1.80;;
25341;SDS011;13298;48.792;9.154;2023-07-22T13:16:34;4.28;;;1.60;;
25341;SDS011;13298;48.792;9.154;2023-07-22T13:19:00;2.83;;;1.88;;
25341;SDS011;13298;48.792;9.154;2023-07-22T13:21:28;2.67;;;1.85;;
25341;SDS011;13298;48.792;9.154;2023-07-22T13:23:54;2.65;;;1.60;;
25341;SDS011;13298;48.792;9.154;2023-07-22T13:26:20;4.20;;;2.10;;
25341;SDS011;13298;48.792;9.154;2023-07-22T13:28:46;2.40;;;1.88;;
25341;SDS011;13298;48.792;9.154;2023-07-22T13:31:12;2.88;;;1.95;;
25341;SDS011;13298;48.792;9.154;2023-07-22T13:33:38;4.45;;;2.22;;
25341;SDS011;13298;48.792;9.154;2023-07-22T13:36:03;2.88;;;1.75;;
25341;SDS011;13298;48.792;9.154;2023-07-22T13:38:29;3.10;;;2.15;;
25341;SDS011;13298;48.792;9.154;2023-07-22T13:40:55;3.20;;;2.30;;
25341;SDS011;13298;48.792;9.154;2023-07-22T13:43:20;3.25;;;1.98;;
25341;SDS011;13298;48.792;9.154;2023-07-22T13:45:46;2.83;;;2.25;;
25341;SDS011;13298;48.792;9.154;2023-07-22T13:48:12;3.28;;;2.00;;
25341;SDS011;13298;48.792;9.154;2023-07-22T13:50:37;3.80;;;2.20;;
25341;SDS011;13298;48.792;9.154;2023-07-22T13:53:03;3.38;;;1.90;;
25341;SDS011;13298;48.792;9.154;2023-07-22T13:55:29;3.03;;;2.25;;
25341;SDS011;13298;48.792;9.154;2023-07-22T13:57:55;3.13;;;2.20;;
25341;SDS011;13298;48.792;9.154;2023-07-22T14:00:20;3.00;;;1.98;;
25341;SDS011;13298;48.792;9.154;2023-07-22T14:02:47;3.30;;;2.30;;
25341;SDS011;13298;48.792;9.154;2023-07-22T14:05:13;3.10;;;2.10;;
25341;SDS011;13298;48.792;9.154;2023-07-22T14:07:38;2.63;;;2.08;;
25341;SDS011;13298;48.792;9.154;2023-07-22T14:10:05;2.30;;;1.90;;
25341;SDS011;13298;48.792;9.154;2023-07-22T14:12:31;2.90;;;2.10;;
25341;SDS011;13298;48.792;9.154;2023-07-22T14:14:57;5.30;;;4.82;;
25341;SDS011;13298;48.792;9.154;2023-07-22T14:17:22;4.10;;;2.50;;
25341;SDS011;13298;48.792;9.154;2023-07-22T14:19:48;3.17;;;2.40;;
25341;SDS011;13298;48.792;9.154;2023-07-22T14:22:14;3.08;;;2.20;;
25341;SDS011;13298;48.792;9.154;2023-07-22T14:24:39;3.05;;;2.00;;
25341;SDS011;13298;48.792;9.154;2023-07-22T14:27:05;4.38;;;2.28;;
25341;SDS011;13298;48.792;9.154;2023-07-22T14:29:31;2.90;;;2.20;;
25341;SDS011;13298;48.792;9.154;2023-07-22T14:31:57;4.32;;;2.17;;
25341;SDS011;13298;48.792;9.154;2023-07-22T14:34:23;3.10;;;2.25;;
25341;SDS011;13298;48.792;9.154;2023-07-22T14:36:49;3.88;;;2.17;;
25341;SDS011;13298;48.792;9.154;2023-07-22T14:39:15;2.90;;;2.05;;
25341;SDS011;13298;48.792;9.154;2023-07-22T14:41:41;4.53;;;2.75;;
25341;SDS011;13298;48.792;9.154;2023-07-22T14:44:10;4.22;;;2.30;;
25341;SDS011;13298;48.792;9.154;2023-07-22T14:46:35;3.60;;;2.33;;
25341;SDS011;13298;48.792;9.154;2023-07-22T14:49:01;4.88;;;2.95;;
25341;SDS011;13298;48.792;9.154;2023-07-22T14:51:29;3.88;;;2.47;;
25341;SDS011;13298;48.792;9.154;2023-07-22T14:53:55;3.35;;;2.30;;
25341;SDS011;13298;48.792;9.154;2023-07-22T14:56:20;3.30;;;2.10;;
25341;SDS011;13298;48.792;9.154;2023-07-22T14:58:46;3.55;;;2.75;;
25341;SDS011;13298;48.792;9.154;2023-07-22T15:01:14;3.55;;;2.30;;
25341;SDS011;13298;48.792;9.154;2023-07-22T15:03:40;3.50;;;2.40;;
25341;SDS011;13298;48.792;9.154;2023-07-22T15:06:05;3.15;;;2.28;;
25341;SDS011;13298;48.792;9.154;2023-07-22T15:08:31;3.70;;;2.45;;
25341;SDS011;13298;48.792;9.154;2023-07-22T15:10:57;5.20;;;2.63;;